Briefing drone pour Chambery (LFLB)

Rechercher une autre localisation

Conditions de vol :


Nous sommes le : Mercredi 27 octobre 2021
Il est 22:24 UTC (00:24 LT)

Lever de soleil : 05:42 UTC (07:42 LT)
Coucher de soleil : 16:57 UTC (18:57 LT)

Météo

L'essentiel des conditions de vol

VIGILANCE MÉTÉO FRANCE - Savoie (73)
Pas de vigilances particulieres
CARTE TEMSI
CARTES DES FRONTS
METAR de LFLB
LFLB 262200Z AUTO VRB03KT CAVOK 10/09 Q1025

Date d'émission: 26/10/2021
Heure d'émission: 22:00 UTC
Vent: Variable 3 KT (6 km/h)
Visibilité horizontale: > 10 km
Plafond : Plafond et visibilité OK (CAVOK)
Température: 10 °C
Point de rosée: 9 °C
Humidité: 94%
Pression (QNH): 1025 hPa
TAF de LFLB
LFLB 261900Z 2619/2715 CNL

Conditions prévues :

Heure d'émission : Bulletin éffectué le 26 à 19:00 UTC
Prévision : Valide du 26 a 19:00 UTC au 27 a 15:00 UTC
Nuages : à 0ft (0 m)
WEBCAM POUR CHAMBERY

Réglementation

Voler en sécurité

CARTES AERONAUTIQUE 1/500.000
CARTES VAC (LFLB)
SUP AIP




Chargement des AIP...
NOTAM (CHAMBERY + Terrain à proximité / FIR )




Chargement des NOTAMS...
CONTACT PREFECTURE 73


Avertissement : Les données mises à disposition sont indicatives. Oxygène Drone ne pourra être tenu responsable de dégâts causés aux biens et aux personnes.